createdAt,value
2023-11-18T00:00:14.696Z,102260.19
2023-11-18T00:02:43.983Z,102258.59
2023-11-18T00:05:12.253Z,102272.00
2023-11-18T00:07:40.291Z,102261.75
2023-11-18T00:10:09.678Z,102257.19
2023-11-18T00:12:37.975Z,102263.88
2023-11-18T00:15:09.927Z,102270.03
2023-11-18T00:17:37.710Z,102263.69
2023-11-18T00:20:10.425Z,102264.63
2023-11-18T00:22:38.286Z,102257.28
2023-11-18T00:25:08.986Z,102250.16
2023-11-18T00:27:37.826Z,102248.91
2023-11-18T00:30:09.389Z,102249.91
2023-11-18T00:32:37.696Z,102250.75
2023-11-18T00:35:06.292Z,102255.69
2023-11-18T00:37:34.208Z,102256.31
2023-11-18T00:40:02.012Z,102261.00
2023-11-18T00:42:29.857Z,102251.06
2023-11-18T00:44:58.507Z,102250.56
2023-11-18T00:47:27.781Z,102263.41
2023-11-18T00:49:55.655Z,102253.88
2023-11-18T00:52:23.579Z,102258.88
2023-11-18T00:54:51.349Z,102252.00
2023-11-18T00:57:19.091Z,102257.78
2023-11-18T00:59:48.313Z,102258.28
2023-11-18T01:02:16.328Z,102243.97
2023-11-18T01:04:46.922Z,102246.63
2023-11-18T01:07:14.780Z,102254.66
2023-11-18T01:09:42.482Z,102256.28
2023-11-18T01:12:10.983Z,102266.38
2023-11-18T01:14:40.315Z,102266.72
2023-11-18T01:17:09.039Z,102264.22
2023-11-18T01:19:37.067Z,102261.91
2023-11-18T01:22:07.236Z,102264.81
2023-11-18T01:24:36.084Z,102258.19
2023-11-18T01:27:03.946Z,102248.75
2023-11-18T01:29:31.997Z,102258.38
2023-11-18T01:32:00.007Z,102249.16
2023-11-18T01:34:29.247Z,102250.25
2023-11-18T01:36:57.942Z,102242.66
2023-11-18T01:39:27.889Z,102254.59
2023-11-18T01:42:02.260Z,102258.38
2023-11-18T01:44:31.520Z,102251.47
2023-11-18T01:47:00.200Z,102245.28
2023-11-18T01:49:29.558Z,102241.88
2023-11-18T01:51:57.757Z,102238.09
2023-11-18T01:54:27.873Z,102240.50
2023-11-18T01:56:56.196Z,102248.06
2023-11-18T01:59:24.124Z,102236.38
2023-11-18T02:01:54.637Z,102238.97
2023-11-18T02:04:23.554Z,102240.66
2023-11-18T02:06:51.946Z,102240.25
2023-11-18T02:09:28.342Z,102241.63
2023-11-18T02:12:05.490Z,102238.78
2023-11-18T02:14:34.342Z,102242.91
2023-11-18T02:17:05.363Z,102243.88
2023-11-18T02:19:35.912Z,102244.41
2023-11-18T02:22:04.349Z,102247.66
2023-11-18T02:24:37.586Z,102242.16
2023-11-18T02:27:08.014Z,102242.81
2023-11-18T02:29:38.294Z,102239.19
2023-11-18T02:32:16.725Z,102247.28
2023-11-18T02:34:54.811Z,102250.69
2023-11-18T02:37:23.554Z,102247.44
2023-11-18T02:39:55.866Z,102247.75
2023-11-18T02:42:26.219Z,102246.56
2023-11-18T02:45:00.258Z,102248.38
2023-11-18T02:47:29.129Z,102237.78
2023-11-18T02:50:06.617Z,102238.66
2023-11-18T02:52:35.172Z,102229.69
2023-11-18T02:55:02.917Z,102220.03
2023-11-18T02:57:32.009Z,102217.50
2023-11-18T03:00:01.479Z,102217.69
2023-11-18T03:02:31.885Z,102220.66
2023-11-18T03:05:00.591Z,102221.44
2023-11-18T03:07:29.147Z,102216.59
2023-11-18T03:09:58.414Z,102219.38
2023-11-18T03:12:28.985Z,102205.03
2023-11-18T03:14:58.824Z,102197.59
2023-11-18T03:17:26.754Z,102200.50
2023-11-18T03:19:54.895Z,102191.56
2023-11-18T03:22:24.145Z,102200.88
2023-11-18T03:24:52.367Z,102199.38
2023-11-18T03:27:20.452Z,102199.75
2023-11-18T03:29:49.078Z,102208.75
2023-11-18T03:32:19.113Z,102209.16
2023-11-18T03:34:46.848Z,102210.25
2023-11-18T03:37:15.042Z,102207.66
2023-11-18T03:39:42.862Z,102203.06
2023-11-18T03:42:10.608Z,102206.22
2023-11-18T03:44:38.689Z,102192.72
2023-11-18T03:47:08.067Z,102191.84
2023-11-18T03:49:37.746Z,102193.25
2023-11-18T03:52:06.395Z,102204.16
2023-11-18T03:54:34.180Z,102203.50
2023-11-18T03:57:01.935Z,102193.63
2023-11-18T03:59:29.636Z,102186.66
2023-11-18T04:01:57.464Z,102170.44
2023-11-18T04:04:25.280Z,102160.88
2023-11-18T04:06:54.683Z,102161.94
2023-11-18T04:09:22.512Z,102156.16
2023-11-18T04:11:50.283Z,102155.41
2023-11-18T04:14:18.109Z,102149.53
2023-11-18T04:16:47.212Z,102150.13
2023-11-18T04:19:15.149Z,102148.78
2023-11-18T04:21:42.892Z,102137.44
2023-11-18T04:24:12.171Z,102138.72
2023-11-18T04:26:39.930Z,102139.94
2023-11-18T04:29:07.666Z,102127.38
2023-11-18T04:31:37.418Z,102133.28
2023-11-18T04:34:06.255Z,102135.59
2023-11-18T04:36:33.948Z,102127.84
2023-11-18T04:39:01.712Z,102132.53
2023-11-18T04:41:32.637Z,102125.59
2023-11-18T04:44:00.931Z,102124.28
2023-11-18T04:46:28.720Z,102129.25
2023-11-18T04:48:57.403Z,102124.63
2023-11-18T04:51:25.474Z,102125.91
2023-11-18T04:53:53.592Z,102124.47
2023-11-18T04:56:21.422Z,102117.38
2023-11-18T04:58:50.571Z,102106.22
2023-11-18T05:01:19.260Z,102112.66
2023-11-18T05:03:47.130Z,102109.59
2023-11-18T05:06:14.885Z,102113.19
2023-11-18T05:08:42.798Z,102109.50
2023-11-18T05:11:11.789Z,102101.69
2023-11-18T05:13:41.203Z,102104.91
2023-11-18T05:16:12.234Z,102105.91
2023-11-18T05:18:40.284Z,102108.19
2023-11-18T05:21:08.733Z,102098.06
2023-11-18T05:23:37.225Z,102102.91
2023-11-18T05:26:06.700Z,102097.31
2023-11-18T05:28:35.530Z,102093.06
2023-11-18T05:31:04.139Z,102098.41
2023-11-18T05:33:35.587Z,102104.84
2023-11-18T05:36:06.161Z,102105.19
2023-11-18T05:38:35.966Z,102114.78
2023-11-18T05:41:04.964Z,102117.19
2023-11-18T05:43:38.248Z,102101.91
2023-11-18T05:46:21.742Z,102103.94
2023-11-18T05:48:51.456Z,102101.25
2023-11-18T05:51:22.232Z,102099.56
2023-11-18T05:53:49.993Z,102110.84
2023-11-18T05:56:18.808Z,102112.25
2023-11-18T05:58:46.759Z,102093.81
2023-11-18T06:01:15.618Z,102096.22
2023-11-18T06:03:44.122Z,102094.56
2023-11-18T06:06:15.167Z,102093.16
2023-11-18T06:08:43.184Z,102094.03
2023-11-18T06:11:15.195Z,102087.09
2023-11-18T06:13:44.674Z,102086.63
2023-11-18T06:16:16.363Z,102091.84
2023-11-18T06:18:46.323Z,102078.53
2023-11-18T06:21:16.319Z,102073.38
2023-11-18T06:23:44.442Z,102071.09
2023-11-18T06:26:12.486Z,102072.09
2023-11-18T06:28:41.912Z,102071.25
2023-11-18T06:31:10.922Z,102071.88
2023-11-18T06:33:41.188Z,102078.72
2023-11-18T06:36:09.795Z,102072.06
2023-11-18T06:38:39.174Z,102063.50
2023-11-18T06:41:09.691Z,102073.91
2023-11-18T06:43:52.826Z,102081.41
2023-11-18T06:46:23.176Z,102074.69
2023-11-18T06:48:51.560Z,102061.31
2023-11-18T06:51:19.371Z,102057.97
2023-11-18T06:53:48.411Z,102061.81
2023-11-18T06:56:17.084Z,102069.47
2023-11-18T06:58:45.232Z,102072.56
2023-11-18T07:01:15.812Z,102067.53
2023-11-18T07:03:43.890Z,102077.13
2023-11-18T07:06:12.189Z,102079.19
2023-11-18T07:08:40.297Z,102082.88
2023-11-18T07:11:09.417Z,102091.22
2023-11-18T07:13:38.499Z,102091.28
2023-11-18T07:16:07.997Z,102098.59
2023-11-18T07:18:35.850Z,102104.41
2023-11-18T07:21:05.790Z,102098.94
2023-11-18T07:23:33.976Z,102095.06
2023-11-18T07:26:02.341Z,102103.84
2023-11-18T07:28:32.286Z,102076.97
2023-11-18T07:31:00.896Z,102084.91
2023-11-18T07:33:28.921Z,102092.34
2023-11-18T07:35:56.921Z,102086.75
2023-11-18T07:38:24.716Z,102085.16
2023-11-18T07:40:57.744Z,102068.53
2023-11-18T07:43:25.761Z,102070.78
2023-11-18T07:45:55.126Z,102076.91
2023-11-18T07:48:22.895Z,102076.97
2023-11-18T07:50:50.647Z,102070.50
2023-11-18T07:53:18.520Z,102073.00
2023-11-18T07:55:46.476Z,102087.25
2023-11-18T07:58:14.243Z,102088.22
2023-11-18T08:00:43.626Z,102084.88
2023-11-18T08:03:14.597Z,102084.41
2023-11-18T08:05:44.911Z,102086.88
2023-11-18T08:08:12.922Z,102080.09
2023-11-18T08:10:43.374Z,102067.44
2023-11-18T08:13:13.977Z,102064.97
2023-11-18T08:15:43.099Z,102072.06
2023-11-18T08:18:12.428Z,102074.97
2023-11-18T08:20:40.816Z,102073.34
2023-11-18T08:23:08.634Z,102070.63
2023-11-18T08:25:37.075Z,102065.78
2023-11-18T08:28:07.886Z,102058.31
2023-11-18T08:30:35.985Z,102044.00
2023-11-18T08:33:06.650Z,102036.44
2023-11-18T08:35:36.134Z,102033.59
2023-11-18T08:38:05.365Z,102028.63
2023-11-18T08:40:33.192Z,102017.78
2023-11-18T08:43:02.320Z,102019.53
2023-11-18T08:45:31.389Z,102023.75
2023-11-18T08:48:00.700Z,102014.00
2023-11-18T08:50:28.954Z,101997.25
2023-11-18T08:53:00.196Z,101993.34
2023-11-18T08:55:42.008Z,101982.56
2023-11-18T08:58:23.265Z,101976.81
2023-11-18T09:00:54.968Z,101966.28
2023-11-18T09:03:29.085Z,101965.06
2023-11-18T09:06:04.803Z,101963.31
2023-11-18T09:08:37.021Z,101951.84
2023-11-18T09:11:07.219Z,101953.25
2023-11-18T09:13:36.963Z,101963.06
2023-11-18T09:16:09.552Z,101960.84
2023-11-18T09:18:41.351Z,101942.88
2023-11-18T09:21:15.809Z,101951.78
2023-11-18T09:23:46.687Z,101950.66
2023-11-18T09:26:15.710Z,101950.97
2023-11-18T09:28:43.926Z,101972.22
2023-11-18T09:31:12.544Z,101972.69
2023-11-18T09:33:46.227Z,101958.50
2023-11-18T09:36:14.218Z,101956.38
2023-11-18T09:38:43.686Z,101963.50
2023-11-18T09:41:14.691Z,101962.59
2023-11-18T09:43:47.742Z,101949.06
2023-11-18T09:46:17.005Z,101960.22
2023-11-18T09:48:48.183Z,101944.22
2023-11-18T09:51:22.098Z,101936.03
2023-11-18T09:53:53.762Z,101930.41
2023-11-18T09:56:38.821Z,101914.16
2023-11-18T09:59:17.039Z,101919.53
2023-11-18T10:01:47.680Z,101930.44
2023-11-18T10:04:19.253Z,101923.13
2023-11-18T10:06:49.376Z,101922.38
2023-11-18T10:09:18.633Z,101924.25
2023-11-18T10:11:49.864Z,101923.63
2023-11-18T10:14:18.005Z,101923.34
2023-11-18T10:16:48.598Z,101907.44
2023-11-18T10:19:18.920Z,101916.16
2023-11-18T10:21:50.150Z,101908.69
2023-11-18T10:24:21.083Z,101902.47
2023-11-18T10:26:58.678Z,101898.13
2023-11-18T10:29:29.301Z,101898.63
2023-11-18T10:32:09.059Z,101890.94
2023-11-18T10:34:37.397Z,101873.53
2023-11-18T10:37:07.735Z,101869.19
2023-11-18T10:39:36.836Z,101865.44
2023-11-18T10:42:06.775Z,101860.25
2023-11-18T10:44:34.523Z,101858.47
2023-11-18T10:47:02.782Z,101870.06
2023-11-18T10:49:37.893Z,101866.31
2023-11-18T10:52:09.672Z,101868.28
2023-11-18T10:54:38.499Z,101860.69
2023-11-18T10:57:10.168Z,101859.69
2023-11-18T10:59:38.321Z,101854.47
2023-11-18T11:02:22.817Z,101833.38
2023-11-18T11:04:51.149Z,101835.13
2023-11-18T11:07:21.402Z,101828.53
2023-11-18T11:09:50.700Z,101822.81
2023-11-18T11:12:21.387Z,101818.16
2023-11-18T11:15:00.813Z,101811.56
2023-11-18T11:17:32.150Z,101812.53
2023-11-18T11:20:18.651Z,101802.22
2023-11-18T11:23:00.094Z,101799.00
2023-11-18T11:25:36.270Z,101804.34
2023-11-18T11:28:14.941Z,101805.97
2023-11-18T11:30:47.630Z,101790.81
2023-11-18T11:33:28.897Z,101768.22
2023-11-18T11:35:59.470Z,101768.22
2023-11-18T11:38:30.046Z,101758.91
2023-11-18T11:41:01.898Z,101748.97
2023-11-18T11:43:32.031Z,101754.44
2023-11-18T11:46:00.384Z,101756.91
2023-11-18T11:48:29.402Z,101757.44
2023-11-18T11:51:07.097Z,101767.59
2023-11-18T11:53:40.318Z,101769.47
2023-11-18T11:56:14.980Z,101763.38
2023-11-18T11:58:45.716Z,101766.34
2023-11-18T12:01:31.069Z,101766.59
2023-11-18T12:03:59.973Z,101763.06
2023-11-18T12:06:29.346Z,101741.34
2023-11-18T12:08:58.857Z,101739.47
2023-11-18T12:11:28.803Z,101737.88
2023-11-18T12:14:14.199Z,101740.59
2023-11-18T12:17:10.226Z,101745.69
2023-11-18T12:19:46.205Z,101735.03
2023-11-18T12:22:25.480Z,101727.16
2023-11-18T12:25:34.684Z,101723.06
2023-11-18T12:28:10.373Z,101725.53
2023-11-18T12:30:53.103Z,101716.25
2023-11-18T12:33:24.426Z,101714.47
2023-11-18T12:36:22.720Z,101697.19
2023-11-18T12:39:34.496Z,101688.41
2023-11-18T12:42:08.976Z,101684.91
2023-11-18T12:44:40.639Z,101679.94
2023-11-18T12:47:19.524Z,101657.91
2023-11-18T12:49:54.765Z,101666.13
2023-11-18T12:52:24.590Z,101651.00
2023-11-18T12:54:52.754Z,101647.03
2023-11-18T12:57:23.884Z,101643.75
2023-11-18T12:59:52.006Z,101648.75
2023-11-18T13:02:22.182Z,101659.69
2023-11-18T13:04:51.324Z,101666.22
2023-11-18T13:07:20.044Z,101660.50
2023-11-18T13:09:48.578Z,101657.44
2023-11-18T13:12:18.405Z,101654.84
2023-11-18T13:14:47.213Z,101642.88
2023-11-18T13:17:17.259Z,101630.09
2023-11-18T13:19:49.092Z,101616.69
2023-11-18T13:22:20.140Z,101624.16
2023-11-18T13:24:48.368Z,101605.91
2023-11-18T13:27:18.253Z,101624.81
2023-11-18T13:29:49.980Z,101626.81
2023-11-18T13:32:18.249Z,101608.16
2023-11-18T13:34:47.611Z,101594.03
2023-11-18T13:37:18.168Z,101607.91
2023-11-18T13:39:48.300Z,101608.19
2023-11-18T13:42:24.041Z,101597.53
2023-11-18T13:44:54.149Z,101574.81
2023-11-18T13:47:23.990Z,101565.88
2023-11-18T13:49:56.291Z,101570.09
2023-11-18T13:52:24.295Z,101563.19
2023-11-18T13:54:56.800Z,101550.31
2023-11-18T13:57:25.349Z,101533.78
2023-11-18T13:59:53.719Z,101528.59
2023-11-18T14:02:22.484Z,101515.19
2023-11-18T14:04:56.636Z,101498.06
2023-11-18T14:07:25.492Z,101487.66
2023-11-18T14:09:57.741Z,101479.06
2023-11-18T14:12:28.752Z,101465.22
2023-11-18T14:14:56.624Z,101456.88
2023-11-18T14:17:24.461Z,101440.84
2023-11-18T14:19:53.815Z,101438.38
2023-11-18T14:22:21.626Z,101424.72
2023-11-18T14:24:49.453Z,101418.25
2023-11-18T14:27:17.990Z,101413.91
2023-11-18T14:29:47.655Z,101402.53
2023-11-18T14:32:15.515Z,101384.75
2023-11-18T14:34:44.252Z,101387.91
2023-11-18T14:37:13.418Z,101371.34
2023-11-18T14:39:41.672Z,101367.50
2023-11-18T14:42:10.658Z,101350.25
2023-11-18T14:44:55.834Z,101366.03
2023-11-18T14:47:23.739Z,101347.91
2023-11-18T14:49:51.554Z,101347.91
2023-11-18T14:52:20.685Z,101352.19
2023-11-18T14:54:48.512Z,101341.97
2023-11-18T14:57:17.093Z,101334.16
2023-11-18T14:59:44.781Z,101322.69
2023-11-18T15:02:12.635Z,101303.94
2023-11-18T15:04:40.716Z,101300.47
2023-11-18T15:07:08.472Z,101290.81
2023-11-18T15:09:55.087Z,101291.81
2023-11-18T15:12:22.823Z,101299.63
2023-11-18T15:14:51.183Z,101304.47
2023-11-18T15:17:19.001Z,101292.69
2023-11-18T15:19:46.882Z,101274.41
2023-11-18T15:22:14.658Z,101264.22
2023-11-18T15:24:43.736Z,101261.63
2023-11-18T15:27:12.557Z,101263.91
2023-11-18T15:29:46.584Z,101251.13
2023-11-18T15:32:14.601Z,101263.66
2023-11-18T15:34:42.477Z,101252.56
2023-11-18T15:37:10.499Z,101241.34
2023-11-18T15:39:38.227Z,101208.00
2023-11-18T15:42:07.924Z,101195.53
2023-11-18T15:44:35.758Z,101195.25
2023-11-18T15:47:04.520Z,101169.06
2023-11-18T15:49:32.320Z,101162.19
2023-11-18T15:52:00.058Z,101161.72
2023-11-18T15:54:28.664Z,101178.72
2023-11-18T15:56:59.462Z,101169.66
2023-11-18T15:59:29.123Z,101172.84
2023-11-18T16:01:56.982Z,101153.75
2023-11-18T16:04:25.140Z,101133.91
2023-11-18T16:06:52.944Z,101131.28
2023-11-18T16:09:21.688Z,101120.19
2023-11-18T16:11:50.217Z,101123.56
2023-11-18T16:14:18.181Z,101122.13
2023-11-18T16:16:47.317Z,101102.97
2023-11-18T16:19:17.399Z,101103.88
2023-11-18T16:21:47.255Z,101097.50
2023-11-18T16:24:15.609Z,101096.78
2023-11-18T16:26:45.121Z,101094.66
2023-11-18T16:29:15.734Z,101087.13
2023-11-18T16:31:44.084Z,101080.22
2023-11-18T16:34:13.395Z,101069.16
2023-11-18T16:36:41.188Z,101067.69
2023-11-18T16:39:08.901Z,101072.00
2023-11-18T16:41:43.629Z,101061.81
2023-11-18T16:44:13.928Z,101060.22
2023-11-18T16:46:41.886Z,101060.69
2023-11-18T16:49:09.730Z,101059.53
2023-11-18T16:51:39.579Z,101049.88
2023-11-18T16:54:08.690Z,101038.66
2023-11-18T16:56:36.459Z,101030.47
2023-11-18T16:59:04.686Z,101047.28
2023-11-18T17:01:32.453Z,101016.25
2023-11-18T17:04:00.539Z,101012.19
2023-11-18T17:06:28.383Z,100994.94
2023-11-18T17:08:57.551Z,100985.03
2023-11-18T17:11:26.252Z,101000.69
2023-11-18T17:13:54.030Z,100991.16
2023-11-18T17:16:26.516Z,100993.47
2023-11-18T17:18:54.663Z,100983.41
2023-11-18T17:21:22.505Z,100977.50
2023-11-18T17:23:51.638Z,100964.13
2023-11-18T17:26:20.731Z,100966.56
2023-11-18T17:28:49.283Z,100977.38
2023-11-18T17:31:16.998Z,100974.38
2023-11-18T17:33:44.938Z,100973.22
2023-11-18T17:36:12.732Z,100979.41
2023-11-18T17:38:40.579Z,100961.97
2023-11-18T17:41:08.752Z,100954.47
2023-11-18T17:43:38.942Z,100951.75
2023-11-18T17:46:09.078Z,100941.69
2023-11-18T17:48:37.357Z,100934.75
2023-11-18T17:51:05.450Z,100909.59
2023-11-18T17:53:33.229Z,100910.84
2023-11-18T17:56:01.119Z,100904.66
2023-11-18T17:58:28.895Z,100903.25
2023-11-18T18:00:59.111Z,100901.94
2023-11-18T18:03:27.496Z,100886.56
2023-11-18T18:05:55.625Z,100884.53
2023-11-18T18:08:23.464Z,100875.25
2023-11-18T18:10:51.231Z,100874.84
2023-11-18T18:13:19.092Z,100901.44
2023-11-18T18:15:48.434Z,100888.91
2023-11-18T18:18:17.578Z,100874.06
2023-11-18T18:20:49.279Z,100861.94
2023-11-18T18:23:17.540Z,100857.63
2023-11-18T18:25:45.386Z,100857.06
2023-11-18T18:28:13.148Z,100841.22
2023-11-18T18:30:41.271Z,100846.38
2023-11-18T18:33:09.985Z,100844.06
2023-11-18T18:35:40.765Z,100849.66
2023-11-18T18:38:09.207Z,100831.06
2023-11-18T18:40:37.009Z,100836.13
2023-11-18T18:43:04.863Z,100820.38
2023-11-18T18:45:33.028Z,100816.91
2023-11-18T18:48:01.234Z,100809.88
2023-11-18T18:50:35.385Z,100806.44
2023-11-18T18:53:04.874Z,100796.78
2023-11-18T18:55:32.877Z,100788.25
2023-11-18T18:58:00.956Z,100795.59
2023-11-18T19:00:28.804Z,100792.38
2023-11-18T19:02:56.778Z,100788.06
2023-11-18T19:05:24.872Z,100783.63
2023-11-18T19:07:56.441Z,100775.50
2023-11-18T19:10:26.145Z,100793.78
2023-11-18T19:13:00.733Z,100798.09
2023-11-18T19:15:28.627Z,100793.72
2023-11-18T19:17:58.901Z,100784.16
2023-11-18T19:20:27.076Z,100783.03
2023-11-18T19:22:55.241Z,100784.38
2023-11-18T19:25:23.156Z,100774.63
2023-11-18T19:30:20.202Z,100756.56
2023-11-18T19:32:47.958Z,100760.28
2023-11-18T19:35:16.554Z,100737.06
2023-11-18T19:37:45.130Z,100737.97
2023-11-18T19:40:13.856Z,100726.22
2023-11-18T19:42:41.809Z,100733.94
2023-11-18T19:45:14.033Z,100717.84
2023-11-18T19:47:42.125Z,100712.84
2023-11-18T19:50:11.118Z,100715.91
2023-11-18T19:52:38.893Z,100712.75
2023-11-18T19:55:07.731Z,100698.75
2023-11-18T19:57:36.758Z,100689.69
2023-11-18T20:00:07.268Z,100682.19
2023-11-18T20:02:42.990Z,100671.72
2023-11-18T20:05:11.082Z,100678.75
2023-11-18T20:07:39.787Z,100675.00
2023-11-18T20:10:10.267Z,100678.31
2023-11-18T20:12:40.090Z,100673.16
2023-11-18T20:15:12.233Z,100665.97
2023-11-18T20:17:41.609Z,100656.09
2023-11-18T20:20:12.125Z,100644.44
2023-11-18T20:22:40.012Z,100651.16
2023-11-18T20:25:08.863Z,100657.00
2023-11-18T20:27:37.417Z,100653.56
2023-11-18T20:30:06.129Z,100646.19
2023-11-18T20:32:34.384Z,100647.75
2023-11-18T20:35:02.533Z,100651.69
2023-11-18T20:37:32.457Z,100645.69
2023-11-18T20:40:00.264Z,100649.50
2023-11-18T20:42:28.001Z,100641.44
2023-11-18T20:44:55.997Z,100643.19
2023-11-18T20:47:24.319Z,100638.69
2023-11-18T20:49:52.398Z,100638.19
2023-11-18T20:52:20.143Z,100625.34
2023-11-18T20:54:49.225Z,100622.59
2023-11-18T20:57:16.966Z,100621.59
2023-11-18T20:59:44.903Z,100615.75
2023-11-18T21:02:13.963Z,100610.47
2023-11-18T21:04:44.220Z,100598.28
2023-11-18T21:07:12.069Z,100597.75
2023-11-18T21:09:41.018Z,100595.19
2023-11-18T21:12:18.064Z,100598.44
2023-11-18T21:14:49.097Z,100586.28
2023-11-18T21:17:17.243Z,100574.25
2023-11-18T21:19:45.402Z,100581.28
2023-11-18T21:22:14.309Z,100571.34
2023-11-18T21:24:42.040Z,100563.81
2023-11-18T21:27:11.127Z,100561.91
2023-11-18T21:29:38.834Z,100559.66
2023-11-18T21:32:07.259Z,100561.56
2023-11-18T21:34:35.079Z,100545.28
2023-11-18T21:37:02.877Z,100555.22
2023-11-18T21:39:30.704Z,100530.88
2023-11-18T21:41:58.507Z,100544.03
2023-11-18T21:44:27.569Z,100529.97
2023-11-18T21:46:55.413Z,100532.38
2023-11-18T21:49:23.217Z,100522.28
2023-11-18T21:51:51.224Z,100524.66
2023-11-18T21:54:18.955Z,100515.72
2023-11-18T21:56:46.987Z,100511.75
2023-11-18T21:59:15.585Z,100511.38
2023-11-18T22:01:44.800Z,100530.25
2023-11-18T22:04:12.624Z,100520.66
2023-11-18T22:06:40.393Z,100517.19
2023-11-18T22:09:09.970Z,100508.78
2023-11-18T22:11:38.375Z,100510.94
2023-11-18T22:14:06.260Z,100515.06
2023-11-18T22:16:34.714Z,100509.91
2023-11-18T22:19:05.504Z,100497.22
2023-11-18T22:21:33.818Z,100501.63
2023-11-18T22:24:01.531Z,100503.34
2023-11-18T22:26:30.809Z,100490.41
2023-11-18T22:28:58.627Z,100484.38
2023-11-18T22:31:27.009Z,100492.25
2023-11-18T22:33:55.008Z,100489.50
2023-11-18T22:36:24.133Z,100474.75
2023-11-18T22:38:52.422Z,100481.19
2023-11-18T22:41:20.273Z,100479.03
2023-11-18T22:43:48.792Z,100480.56
2023-11-18T22:46:16.893Z,100481.34
2023-11-18T22:48:45.819Z,100465.22
2023-11-18T22:51:13.660Z,100473.94
2023-11-18T22:53:43.605Z,100467.91
2023-11-18T22:56:11.876Z,100461.56
2023-11-18T22:58:42.692Z,100442.72
2023-11-18T23:01:11.863Z,100442.53
2023-11-18T23:03:40.391Z,100442.53
2023-11-18T23:06:10.745Z,100440.09
2023-11-18T23:08:38.845Z,100440.41
2023-11-18T23:11:08.139Z,100448.66
2023-11-18T23:13:36.782Z,100440.47
2023-11-18T23:16:04.912Z,100435.56
2023-11-18T23:18:33.532Z,100433.09
2023-11-18T23:21:01.391Z,100431.69
2023-11-18T23:23:29.073Z,100437.19
2023-11-18T23:25:56.791Z,100433.34
2023-11-18T23:28:25.911Z,100428.13
2023-11-18T23:30:57.401Z,100419.88
2023-11-18T23:33:25.313Z,100442.94
2023-11-18T23:35:53.687Z,100440.00
2023-11-18T23:38:22.382Z,100423.03
2023-11-18T23:40:50.537Z,100419.78
2023-11-18T23:43:19.100Z,100414.00
2023-11-18T23:45:48.539Z,100422.41
2023-11-18T23:48:16.823Z,100407.56
2023-11-18T23:50:44.781Z,100416.13
2023-11-18T23:53:12.563Z,100417.72
2023-11-18T23:55:40.357Z,100406.63
2023-11-18T23:58:09.023Z,100410.59
